createdAt,value
2018-01-28T00:01:20.812Z,90.70
2018-01-28T00:03:49.272Z,90.60
2018-01-28T00:06:17.552Z,90.70
2018-01-28T00:08:46.419Z,90.80
2018-01-28T00:11:15.485Z,90.70
2018-01-28T00:13:43.859Z,90.70
2018-01-28T00:16:12.141Z,90.60
2018-01-28T00:18:40.437Z,90.60
2018-01-28T00:21:09.460Z,90.40
2018-01-28T00:23:37.808Z,90.40
2018-01-28T00:26:06.885Z,90.50
2018-01-28T00:28:35.272Z,90.50
2018-01-28T00:31:03.539Z,90.30
2018-01-28T00:33:31.795Z,90.40
2018-01-28T00:36:00.055Z,90.20
2018-01-28T00:38:29.312Z,90.30
2018-01-28T00:41:00.729Z,90.30
2018-01-28T00:43:29.842Z,90.10
2018-01-28T00:45:58.973Z,90.20
2018-01-28T00:48:27.303Z,90.20
2018-01-28T00:50:56.368Z,89.60
2018-01-28T00:53:25.442Z,89.30
2018-01-28T00:55:53.999Z,89.30
2018-01-28T00:58:23.088Z,89.00
2018-01-28T01:00:51.341Z,89.00
2018-01-28T01:03:20.385Z,89.30
2018-01-28T01:05:48.664Z,89.30
2018-01-28T01:08:16.900Z,89.70
2018-01-28T01:10:46.390Z,90.00
2018-01-28T01:13:18.861Z,90.00
2018-01-28T01:15:47.149Z,90.10
2018-01-28T01:18:15.505Z,90.40
2018-01-28T01:20:43.887Z,90.40
2018-01-28T01:23:12.233Z,90.40
2018-01-28T01:25:40.467Z,90.40
2018-01-28T01:28:09.541Z,90.60
2018-01-28T01:30:37.860Z,90.50
2018-01-28T01:33:06.136Z,90.70
2018-01-28T01:35:34.412Z,90.80
2018-01-28T01:38:02.709Z,90.90
2018-01-28T01:40:30.954Z,90.70
2018-01-28T01:42:59.285Z,90.80
2018-01-28T01:45:27.552Z,90.80
2018-01-28T01:47:55.816Z,90.70
2018-01-28T01:50:24.056Z,90.70
2018-01-28T01:52:52.430Z,90.80
2018-01-28T01:55:21.551Z,90.50
2018-01-28T01:57:50.092Z,90.50
2018-01-28T02:00:19.173Z,90.50
2018-01-28T02:02:47.511Z,90.50
2018-01-28T02:05:15.753Z,90.50
2018-01-28T02:07:44.816Z,90.40
2018-01-28T02:10:13.088Z,90.30
2018-01-28T02:12:41.406Z,90.40
2018-01-28T02:15:10.513Z,90.20
2018-01-28T02:17:39.585Z,90.20
2018-01-28T02:20:08.049Z,90.20
2018-01-28T02:22:36.357Z,90.40
2018-01-28T02:25:05.401Z,90.50
2018-01-28T02:27:33.697Z,90.20
2018-01-28T02:30:02.296Z,90.20
2018-01-28T02:32:30.566Z,90.10
2018-01-28T02:34:59.568Z,90.30
2018-01-28T02:37:28.860Z,90.10
2018-01-28T02:39:57.160Z,90.20
2018-01-28T02:42:25.416Z,90.30
2018-01-28T02:44:54.504Z,90.10
2018-01-28T02:47:22.793Z,90.20
2018-01-28T02:49:51.921Z,90.10
2018-01-28T02:52:20.385Z,90.10
2018-01-28T02:54:49.477Z,89.70
2018-01-28T02:57:18.502Z,89.60
2018-01-28T02:59:47.251Z,89.60
2018-01-28T03:02:15.569Z,89.50
2018-01-28T03:04:43.830Z,89.60
2018-01-28T03:07:12.150Z,89.50
2018-01-28T03:09:40.393Z,89.30
2018-01-28T03:12:08.693Z,89.40
2018-01-28T03:14:37.089Z,89.20
2018-01-28T03:17:05.369Z,89.10
2018-01-28T03:19:33.692Z,89.00
2018-01-28T03:22:02.811Z,88.50
2018-01-28T03:24:31.048Z,88.50
2018-01-28T03:27:00.085Z,88.70
2018-01-28T03:29:28.436Z,88.60
2018-01-28T03:31:57.437Z,88.70
2018-01-28T03:34:25.741Z,88.70
2018-01-28T03:36:54.009Z,88.80
2018-01-28T03:39:22.313Z,88.40
2018-01-28T03:41:50.604Z,88.40
2018-01-28T03:44:19.726Z,88.30
2018-01-28T03:46:48.270Z,87.90
2018-01-28T03:49:16.513Z,88.00
2018-01-28T03:51:44.896Z,87.80
2018-01-28T03:54:13.142Z,88.00
2018-01-28T03:56:41.389Z,88.00
2018-01-28T03:59:09.660Z,87.80
2018-01-28T04:01:37.925Z,87.80
2018-01-28T04:04:06.216Z,88.30
2018-01-28T04:06:34.590Z,88.00
2018-01-28T04:09:02.860Z,87.80
2018-01-28T04:11:31.096Z,88.20
2018-01-28T04:13:59.372Z,87.60
2018-01-28T04:16:27.637Z,88.00
2018-01-28T04:18:55.916Z,87.90
2018-01-28T04:21:24.185Z,88.40
2018-01-28T04:23:52.512Z,88.10
2018-01-28T04:26:20.860Z,87.50
2018-01-28T04:28:49.228Z,88.00
2018-01-28T04:31:17.554Z,87.60
2018-01-28T04:33:45.801Z,87.60
2018-01-28T04:36:14.097Z,87.30
2018-01-28T04:38:42.353Z,87.70
2018-01-28T04:41:10.619Z,87.30
2018-01-28T04:43:38.888Z,87.00
2018-01-28T04:46:07.138Z,86.20
2018-01-28T04:48:36.196Z,86.60
2018-01-28T04:51:04.482Z,86.60
2018-01-28T04:53:32.817Z,86.30
2018-01-28T04:56:01.092Z,86.60
2018-01-28T04:58:29.389Z,86.20
2018-01-28T05:00:57.689Z,85.90
2018-01-28T05:03:25.973Z,86.10
2018-01-28T05:05:54.244Z,86.00
2018-01-28T05:08:22.489Z,85.60
2018-01-28T05:10:50.860Z,86.10
2018-01-28T05:13:19.217Z,86.20
2018-01-28T05:15:48.236Z,86.20
2018-01-28T05:18:16.529Z,86.10
2018-01-28T05:20:44.796Z,86.30
2018-01-28T05:23:13.103Z,85.80
2018-01-28T05:25:41.458Z,85.80
2018-01-28T05:28:10.544Z,86.30
2018-01-28T05:30:38.800Z,86.30
2018-01-28T05:33:07.032Z,86.50
2018-01-28T05:35:35.436Z,86.10
2018-01-28T05:38:04.448Z,85.80
2018-01-28T05:40:32.713Z,85.70
2018-01-28T05:43:00.985Z,86.20
2018-01-28T05:45:29.261Z,85.70
2018-01-28T05:47:57.513Z,86.20
2018-01-28T05:50:25.842Z,86.60
2018-01-28T05:52:54.352Z,86.80
2018-01-28T05:55:22.597Z,86.50
2018-01-28T05:57:50.920Z,86.90
2018-01-28T06:00:19.190Z,87.10
2018-01-28T06:02:47.512Z,87.80
2018-01-28T06:05:15.800Z,88.40
2018-01-28T06:07:44.118Z,88.20
2018-01-28T06:10:12.391Z,88.30
2018-01-28T06:12:40.720Z,89.20
2018-01-28T06:15:08.996Z,88.70
2018-01-28T06:17:37.256Z,89.10
2018-01-28T06:20:05.560Z,89.20
2018-01-28T06:22:33.983Z,88.30
2018-01-28T06:25:02.245Z,88.20
2018-01-28T06:27:31.325Z,88.40
2018-01-28T06:30:00.352Z,88.90
2018-01-28T06:32:28.642Z,89.00
2018-01-28T06:34:57.023Z,88.90
2018-01-28T06:37:25.398Z,88.10
2018-01-28T06:39:53.784Z,88.30
2018-01-28T06:42:22.071Z,88.00
2018-01-28T06:44:50.301Z,88.40
2018-01-28T06:47:18.553Z,88.10
2018-01-28T06:49:46.815Z,87.90
2018-01-28T06:52:16.327Z,86.50
2018-01-28T06:54:44.620Z,86.80
2018-01-28T06:57:12.856Z,86.90
2018-01-28T06:59:41.144Z,86.60
2018-01-28T07:02:09.633Z,86.60
2018-01-28T07:04:37.928Z,87.10
2018-01-28T07:07:06.188Z,87.20
2018-01-28T07:09:34.481Z,86.30
2018-01-28T07:12:02.758Z,85.80
2018-01-28T07:14:31.618Z,85.10
2018-01-28T07:17:00.047Z,85.00
2018-01-28T07:19:29.096Z,85.00
2018-01-28T07:21:57.377Z,85.00
2018-01-28T07:24:25.676Z,84.90
2018-01-28T07:26:54.779Z,84.20
2018-01-28T07:29:23.808Z,84.70
2018-01-28T07:31:52.057Z,84.70
2018-01-28T07:34:21.100Z,84.40
2018-01-28T07:36:49.377Z,84.40
2018-01-28T07:39:17.636Z,83.40
2018-01-28T07:41:45.906Z,84.20
2018-01-28T07:44:14.954Z,83.60
2018-01-28T07:46:43.917Z,83.60
2018-01-28T07:49:12.220Z,84.30
2018-01-28T07:51:40.508Z,84.40
2018-01-28T07:54:08.757Z,84.60
2018-01-28T07:56:37.089Z,84.50
2018-01-28T07:59:05.327Z,84.90
2018-01-28T08:01:33.568Z,85.30
2018-01-28T08:04:01.876Z,85.00
2018-01-28T08:06:30.137Z,85.30
2018-01-28T08:08:58.545Z,85.50
2018-01-28T08:11:28.225Z,85.80
2018-01-28T08:14:07.576Z,85.80
2018-01-28T08:16:35.854Z,86.00
2018-01-28T08:19:04.101Z,86.50
2018-01-28T08:21:32.380Z,86.70
2018-01-28T08:24:00.764Z,87.30
2018-01-28T08:26:29.008Z,87.70
2018-01-28T08:29:01.005Z,87.80
2018-01-28T08:31:29.280Z,87.80
2018-01-28T08:33:58.148Z,88.30
2018-01-28T08:36:26.464Z,89.10
2018-01-28T08:38:54.708Z,88.80
2018-01-28T08:41:22.985Z,88.90
2018-01-28T08:43:51.357Z,89.10
2018-01-28T08:46:19.652Z,89.10
2018-01-28T08:48:47.972Z,89.20
2018-01-28T08:51:17.088Z,89.70
2018-01-28T08:53:45.324Z,89.70
2018-01-28T08:56:13.691Z,89.50
2018-01-28T08:58:41.913Z,89.60
2018-01-28T09:01:10.920Z,89.20
2018-01-28T09:03:39.159Z,89.20
2018-01-28T09:06:07.457Z,89.60
2018-01-28T09:08:35.690Z,89.60
2018-01-28T09:11:03.973Z,89.40
2018-01-28T09:13:32.530Z,90.00
2018-01-28T09:16:01.017Z,90.50
2018-01-28T09:18:29.388Z,90.40
2018-01-28T09:20:57.740Z,90.40
2018-01-28T09:23:26.748Z,90.80
2018-01-28T09:25:55.021Z,90.80
2018-01-28T09:28:24.072Z,91.10
2018-01-28T09:30:52.309Z,91.10
2018-01-28T09:33:20.601Z,91.10
2018-01-28T09:35:48.974Z,91.20
2018-01-28T09:38:17.996Z,91.30
2018-01-28T09:40:46.467Z,91.30
2018-01-28T09:43:14.746Z,91.40
2018-01-28T09:45:44.509Z,91.70
2018-01-28T09:48:12.908Z,91.80
2018-01-28T09:50:42.022Z,92.00
2018-01-28T09:53:11.029Z,91.80
2018-01-28T09:55:39.283Z,91.80
2018-01-28T09:58:08.404Z,91.70
2018-01-28T10:00:36.684Z,91.70
2018-01-28T10:03:04.952Z,92.10
2018-01-28T10:05:33.236Z,91.70
2018-01-28T10:08:01.651Z,91.80
2018-01-28T10:10:29.889Z,91.60
2018-01-28T10:12:58.169Z,91.80
2018-01-28T10:15:27.589Z,91.80
2018-01-28T10:17:55.830Z,91.40
2018-01-28T10:20:24.137Z,91.60
2018-01-28T10:22:52.628Z,91.00
2018-01-28T10:25:21.067Z,91.10
2018-01-28T10:27:49.330Z,91.20
2018-01-28T10:30:18.493Z,91.40
2018-01-28T10:32:46.731Z,91.40
2018-01-28T10:35:14.998Z,90.90
2018-01-28T10:37:43.277Z,91.40
2018-01-28T10:40:11.528Z,91.10
2018-01-28T10:42:40.593Z,91.10
2018-01-28T10:45:08.843Z,91.10
2018-01-28T10:47:37.088Z,91.20
2018-01-28T10:50:05.440Z,91.40
2018-01-28T10:52:34.459Z,91.40
2018-01-28T10:55:02.823Z,91.40
2018-01-28T10:57:31.076Z,91.40
2018-01-28T11:00:00.548Z,91.20
2018-01-28T11:02:29.413Z,91.60
2018-01-28T11:04:57.699Z,91.80
2018-01-28T11:07:26.116Z,91.60
2018-01-28T11:09:54.394Z,91.50
2018-01-28T11:12:22.688Z,91.30
2018-01-28T11:14:50.977Z,91.10
2018-01-28T11:17:20.012Z,91.40
2018-01-28T11:19:48.321Z,91.40
2018-01-28T11:22:16.545Z,91.30
2018-01-28T11:24:44.800Z,91.20
2018-01-28T11:27:13.895Z,91.50
2018-01-28T11:29:42.900Z,91.50
2018-01-28T11:32:11.148Z,91.60
2018-01-28T11:34:39.421Z,91.30
2018-01-28T11:37:07.662Z,91.70
2018-01-28T11:39:35.934Z,91.60
2018-01-28T11:42:04.298Z,91.40
2018-01-28T11:44:32.528Z,91.60
2018-01-28T11:47:00.828Z,91.30
2018-01-28T11:49:29.892Z,91.40
2018-01-28T11:51:58.172Z,91.30
2018-01-28T11:54:26.464Z,90.80
2018-01-28T11:56:54.752Z,90.90
2018-01-28T11:59:23.816Z,90.80
2018-01-28T12:01:54.477Z,90.80
2018-01-28T12:04:23.555Z,90.70
2018-01-28T12:06:51.819Z,90.70
2018-01-28T12:09:20.228Z,90.70
2018-01-28T12:11:49.380Z,90.50
2018-01-28T12:14:17.617Z,90.50
2018-01-28T12:16:45.876Z,90.60
2018-01-28T12:19:15.004Z,90.40
2018-01-28T12:21:43.486Z,90.40
2018-01-28T12:24:11.791Z,90.30
2018-01-28T12:26:40.106Z,90.10
2018-01-28T12:29:09.130Z,89.80
2018-01-28T12:31:37.440Z,89.80
2018-01-28T12:34:05.790Z,90.30
2018-01-28T12:36:34.023Z,89.70
2018-01-28T12:39:02.309Z,90.40
2018-01-28T12:41:31.330Z,90.60
2018-01-28T12:43:59.609Z,90.60
2018-01-28T12:46:27.842Z,90.40
2018-01-28T12:48:56.944Z,90.30
2018-01-28T12:51:25.176Z,90.30
2018-01-28T12:53:53.408Z,90.40
2018-01-28T12:56:22.463Z,90.20
2018-01-28T12:58:50.699Z,90.30
2018-01-28T13:01:18.985Z,90.20
2018-01-28T13:03:47.272Z,90.20
2018-01-28T13:06:15.548Z,90.20
2018-01-28T13:08:44.004Z,90.20
2018-01-28T13:11:13.524Z,90.10
2018-01-28T13:13:42.692Z,90.10
2018-01-28T13:16:10.952Z,90.10
2018-01-28T13:18:40.217Z,90.20
2018-01-28T13:21:09.250Z,90.30
2018-01-28T13:23:38.017Z,90.30
2018-01-28T13:26:06.394Z,90.20
2018-01-28T13:28:34.649Z,90.10
2018-01-28T13:31:03.692Z,90.10
2018-01-28T13:33:32.024Z,90.10
2018-01-28T13:36:01.340Z,90.00
2018-01-28T13:38:29.812Z,90.10
2018-01-28T13:40:58.124Z,90.00
2018-01-28T13:43:26.382Z,90.00
2018-01-28T13:45:54.599Z,90.00
2018-01-28T13:48:23.011Z,90.20
2018-01-28T13:50:51.332Z,90.40
2018-01-28T13:53:19.600Z,90.30
2018-01-28T13:55:47.884Z,90.60
2018-01-28T13:58:16.216Z,90.70
2018-01-28T14:00:46.031Z,91.00
2018-01-28T14:03:15.673Z,91.00
2018-01-28T14:05:43.973Z,91.20
2018-01-28T14:08:12.255Z,91.30
2018-01-28T14:10:40.608Z,91.40
2018-01-28T14:13:08.856Z,91.40
2018-01-28T14:15:37.860Z,91.70
2018-01-28T14:18:06.323Z,91.70
2018-01-28T14:20:35.346Z,91.60
2018-01-28T14:23:03.585Z,91.60
2018-01-28T14:25:32.732Z,91.90
2018-01-28T14:28:01.071Z,91.90
2018-01-28T14:30:29.312Z,91.70
2018-01-28T14:32:57.668Z,91.50
2018-01-28T14:35:26.140Z,91.50
2018-01-28T14:37:54.213Z,91.60
2018-01-28T14:40:24.118Z,91.70
2018-01-28T14:42:52.376Z,91.60
2018-01-28T14:45:20.694Z,91.50
2018-01-28T14:47:49.036Z,91.40
2018-01-28T14:50:17.425Z,91.20
2018-01-28T14:52:45.713Z,91.20
2018-01-28T14:55:14.015Z,91.10
2018-01-28T14:57:42.268Z,91.20
2018-01-28T15:00:10.556Z,91.00
2018-01-28T15:02:38.913Z,90.90
2018-01-28T15:05:07.329Z,91.10
2018-01-28T15:07:36.867Z,91.10
2018-01-28T15:10:05.265Z,91.10
2018-01-28T15:12:33.512Z,91.10
2018-01-28T15:15:02.539Z,90.80
2018-01-28T15:17:30.823Z,90.80
2018-01-28T15:19:59.076Z,91.00
2018-01-28T15:22:27.352Z,90.70
2018-01-28T15:24:55.616Z,90.90
2018-01-28T15:27:24.624Z,90.90
2018-01-28T15:29:52.865Z,90.80
2018-01-28T15:32:21.246Z,90.80
2018-01-28T15:34:49.504Z,90.70
2018-01-28T15:37:17.737Z,90.70
2018-01-28T15:39:46.002Z,90.50
2018-01-28T15:42:14.296Z,90.60
2018-01-28T15:44:42.629Z,90.50
2018-01-28T15:47:10.893Z,90.60
2018-01-28T15:49:39.128Z,90.70
2018-01-28T15:52:07.547Z,90.80
2018-01-28T15:54:35.865Z,90.70
2018-01-28T15:57:04.108Z,90.80
2018-01-28T15:59:32.356Z,90.80
2018-01-28T16:02:00.635Z,90.60
2018-01-28T16:04:28.884Z,90.70
2018-01-28T16:06:57.128Z,90.70
2018-01-28T16:09:26.188Z,91.00
2018-01-28T16:11:54.568Z,91.00
2018-01-28T16:14:22.804Z,91.10
2018-01-28T16:16:51.110Z,90.80
2018-01-28T16:19:19.372Z,90.60
2018-01-28T16:21:47.644Z,90.70
2018-01-28T16:24:15.924Z,90.70
2018-01-28T16:26:44.237Z,90.70
2018-01-28T16:29:12.908Z,91.00
2018-01-28T16:31:41.289Z,90.80
2018-01-28T16:34:09.540Z,90.80
2018-01-28T16:36:37.930Z,90.80
2018-01-28T16:39:06.276Z,90.60
2018-01-28T16:41:34.600Z,90.70
2018-01-28T16:44:02.864Z,90.40
2018-01-28T16:46:31.139Z,90.50
2018-01-28T16:48:59.417Z,90.50
2018-01-28T16:51:27.652Z,90.50
2018-01-28T16:53:56.723Z,90.00
2018-01-28T16:56:24.924Z,90.00
2018-01-28T16:58:54.095Z,90.20
2018-01-28T17:01:23.596Z,90.50
2018-01-28T17:03:51.856Z,90.00
2018-01-28T17:06:20.316Z,90.10
2018-01-28T17:08:49.350Z,89.80
2018-01-28T17:11:17.626Z,89.80
2018-01-28T17:13:45.871Z,90.00
2018-01-28T17:16:14.139Z,89.60
2018-01-28T17:18:42.597Z,89.90
2018-01-28T17:21:10.837Z,89.70
2018-01-28T17:23:39.133Z,89.60
2018-01-28T17:26:07.415Z,89.10
2018-01-28T17:28:35.658Z,88.70
2018-01-28T17:31:04.367Z,89.80
2018-01-28T17:33:33.443Z,89.30
2018-01-28T17:36:01.742Z,89.30
2018-01-28T17:38:30.053Z,88.20
2018-01-28T17:40:59.115Z,87.80
2018-01-28T17:43:27.382Z,87.80
2018-01-28T17:45:56.085Z,87.70
2018-01-28T17:48:24.327Z,88.40
2018-01-28T17:50:52.661Z,88.20
2018-01-28T17:53:21.698Z,88.20
2018-01-28T17:55:49.970Z,87.90
2018-01-28T17:58:18.221Z,88.30
2018-01-28T18:00:46.573Z,87.80
2018-01-28T18:03:14.827Z,88.30
2018-01-28T18:05:43.071Z,87.90
2018-01-28T18:08:14.209Z,87.90
2018-01-28T18:10:43.278Z,87.60
2018-01-28T18:13:11.661Z,87.50
2018-01-28T18:15:40.710Z,88.20
2018-01-28T18:18:09.240Z,88.10
2018-01-28T18:20:37.492Z,87.90
2018-01-28T18:23:05.830Z,88.10
2018-01-28T18:25:34.147Z,88.20
2018-01-28T18:28:02.392Z,87.90
2018-01-28T18:30:30.784Z,88.00
2018-01-28T18:32:59.025Z,87.60
2018-01-28T18:35:27.275Z,88.20
2018-01-28T18:37:55.537Z,88.20
2018-01-28T18:40:24.572Z,88.00
2018-01-28T18:42:52.839Z,88.00
2018-01-28T18:45:21.119Z,87.70
2018-01-28T18:47:49.360Z,88.00
2018-01-28T18:50:18.459Z,87.80
2018-01-28T18:52:47.572Z,87.90
2018-01-28T18:55:15.804Z,87.90
2018-01-28T18:57:44.140Z,88.10
2018-01-28T19:00:12.658Z,88.40
2018-01-28T19:02:41.724Z,88.20
2018-01-28T19:05:09.969Z,88.20
2018-01-28T19:07:38.483Z,87.80
2018-01-28T19:10:06.752Z,88.10
2018-01-28T19:12:34.990Z,87.60
2018-01-28T19:15:04.333Z,87.40
2018-01-28T19:17:32.624Z,87.40
2018-01-28T19:20:00.889Z,87.80
2018-01-28T19:22:29.636Z,87.20
2018-01-28T19:24:57.946Z,87.30
2018-01-28T19:27:27.243Z,87.20
2018-01-28T19:29:55.705Z,87.10
2018-01-28T19:32:24.871Z,86.90
2018-01-28T19:34:53.604Z,86.90
2018-01-28T19:37:21.909Z,87.50
2018-01-28T19:39:50.306Z,86.80
2018-01-28T19:42:18.562Z,86.50
2018-01-28T19:44:46.875Z,86.60
2018-01-28T19:47:15.285Z,86.90
2018-01-28T19:49:43.509Z,86.70
2018-01-28T19:52:11.862Z,86.30
2018-01-28T19:54:40.161Z,86.80
2018-01-28T19:57:08.537Z,86.10
2018-01-28T19:59:36.976Z,85.90
2018-01-28T20:02:05.974Z,86.10
2018-01-28T20:04:35.602Z,86.50
2018-01-28T20:07:03.924Z,86.50
2018-01-28T20:09:34.467Z,86.40
2018-01-28T20:12:03.561Z,86.40
2018-01-28T20:14:32.230Z,86.50
2018-01-28T20:17:02.132Z,86.50
2018-01-28T20:19:30.641Z,86.60
2018-01-28T20:22:00.646Z,86.60
2018-01-28T20:24:30.053Z,86.60
2018-01-28T20:26:58.359Z,86.40
2018-01-28T20:29:26.683Z,86.40
2018-01-28T20:31:55.216Z,86.80
2018-01-28T20:34:23.850Z,87.10
2018-01-28T20:36:52.121Z,87.00
2018-01-28T20:39:21.410Z,87.10
2018-01-28T20:41:50.863Z,87.10
2018-01-28T20:44:20.389Z,87.10
2018-01-28T20:46:49.582Z,87.40
2018-01-28T20:49:17.841Z,87.60
2018-01-28T20:51:46.944Z,87.70
2018-01-28T20:54:16.809Z,87.70
2018-01-28T20:56:45.805Z,87.70
2018-01-28T20:59:15.174Z,88.30
2018-01-28T21:01:44.353Z,88.00
2018-01-28T21:04:13.444Z,88.50
2018-01-28T21:06:41.855Z,88.70
2018-01-28T21:09:10.628Z,88.80
2018-01-28T21:11:39.934Z,89.00
2018-01-28T21:14:08.278Z,89.30
2018-01-28T21:16:36.553Z,89.40
2018-01-28T21:19:05.770Z,89.60
2018-01-28T21:21:35.540Z,89.50
2018-01-28T21:24:03.890Z,89.50
2018-01-28T21:26:32.317Z,90.00
2018-01-28T21:29:01.314Z,90.00
2018-01-28T21:31:30.440Z,90.20
2018-01-28T21:33:59.496Z,90.00
2018-01-28T21:36:27.877Z,90.00
2018-01-28T21:38:56.928Z,90.20
2018-01-28T21:41:25.187Z,90.20
2018-01-28T21:43:53.477Z,90.20
2018-01-28T21:46:21.772Z,90.10
2018-01-28T21:48:50.563Z,90.30
2018-01-28T21:51:20.129Z,90.30
2018-01-28T21:53:49.366Z,90.40
2018-01-28T21:56:18.382Z,90.40
2018-01-28T21:58:46.672Z,90.50
2018-01-28T22:01:15.020Z,90.50
2018-01-28T22:03:43.305Z,90.50
2018-01-28T22:06:11.817Z,90.60
2018-01-28T22:08:41.049Z,90.60
2018-01-28T22:11:09.307Z,90.50
2018-01-28T22:13:37.642Z,90.60
2018-01-28T22:16:06.684Z,90.50
2018-01-28T22:18:35.684Z,90.60
2018-01-28T22:21:04.072Z,90.60
2018-01-28T22:23:32.432Z,90.60
2018-01-28T22:26:00.763Z,90.50
2018-01-28T22:28:29.102Z,90.50
2018-01-28T22:30:58.169Z,90.70
2018-01-28T22:33:27.271Z,90.70
2018-01-28T22:35:56.364Z,90.60
2018-01-28T22:38:25.550Z,90.60
2018-01-28T22:40:53.954Z,90.60
2018-01-28T22:43:22.332Z,90.60
2018-01-28T22:45:51.334Z,90.50
2018-01-28T22:48:19.729Z,90.50
2018-01-28T22:50:48.129Z,90.50
2018-01-28T22:53:16.419Z,90.60
2018-01-28T22:55:44.692Z,90.60
2018-01-28T22:58:13.038Z,90.60
2018-01-28T23:00:42.034Z,90.60
2018-01-28T23:03:10.288Z,90.60
2018-01-28T23:05:39.329Z,90.70
2018-01-28T23:08:07.594Z,90.70
2018-01-28T23:10:35.848Z,90.60
2018-01-28T23:13:04.112Z,90.70
2018-01-28T23:15:32.356Z,90.70
2018-01-28T23:18:00.632Z,90.60
2018-01-28T23:20:28.938Z,90.80
2018-01-28T23:22:57.228Z,90.90
2018-01-28T23:25:25.477Z,90.90
2018-01-28T23:27:54.505Z,91.00
2018-01-28T23:30:22.816Z,91.00
2018-01-28T23:32:51.076Z,91.00
2018-01-28T23:35:19.533Z,91.30
2018-01-28T23:37:47.848Z,91.40
2018-01-28T23:40:16.084Z,91.60
2018-01-28T23:42:44.371Z,91.70
2018-01-28T23:45:12.601Z,91.90
2018-01-28T23:47:41.617Z,92.10
2018-01-28T23:50:09.890Z,92.10
2018-01-28T23:52:38.139Z,92.30
2018-01-28T23:55:06.465Z,92.50
2018-01-28T23:57:34.817Z,92.60
